The City of Austin is in the process of converting the data from our rainfall and stream level gauges to the LCRA's Hydromet system, and the data is currently unavailable.


Flood Early Warning System
 
USGS LogoUSGS Gauges
Site Name Site Number Last Update At Gauge Level (ft) Discharge, ft3/sec Gauge Datum USGS Link
Lake Creek at Lake Creek Parkway nr Austin,TX 08105886 11/21/2019 04:45 PM 2.37 0.55 847.00 amsl, NAVD88 View in USGS
Bull Ck at Loop 360 nr Austin, TX 08154700 11/21/2019 05:40 PM 2.58 1.82 534.08 amsl, NGVD29 View in USGS
Barton Ck at SH 71 nr Oak Hill, TX 08155200 11/21/2019 05:20 PM 2.20 1.79 737.04 amsl, NGVD29 View in USGS
Barton Ck at Lost Ck Blvd nr Austin, TX 08155240 11/21/2019 05:40 PM 4.61 2.31 600.00 amsl, NGVD29 View in USGS
Barton Ck at Loop 360, Austin, TX 08155300 11/21/2019 05:40 PM 1.73 0.00 510.32 amsl, NGVD29 View in USGS
Barton Ck abv Barton Spgs at Austin, TX 08155400 11/21/2019 05:20 PM 1.70 1.88 480.00 amsl, NVGD29 View in USGS
Barton Spgs at Austin, TX 08155500 11/21/2019 05:00 PM 22.77 61.50 462.34 amsl, NGVD29 View in USGS
W Bouldin Ck at Oltorf Rd, Austin, TX 08155541 11/21/2019 05:05 PM 1.56 0.07 551.00 amsl, NAVD88 View in USGS
Shoal Ck at Silverway Dr, Austin, TX 08156675 11/21/2019 05:35 PM 1.58 0.01 672.00 amsl, NAVD88 View in USGS
Shoal Ck at W 12th St, Austin, TX 08156800 11/21/2019 05:35 PM 1.53 0.00 455.33 amsl, NGVD29 View in USGS
Waller Ck at Koenig Lane, Austin, TX 08156910 11/21/2019 05:40 PM 0.65 0.23 627.00 amsl, NAVD88 View in USGS
Colorado Rv at Austin, TX 08158000 11/21/2019 04:50 PM 11.84 455.00 402.27 amsl, NGVD29 View in USGS
Boggy Ck at Manor Rd, Austin, TX 08158030 11/21/2019 05:30 PM 0.96 0.18 530.00 amsl, NAVD88 View in USGS
Boggy Ck at Webberville Rd, Austin, TX 08158035 11/21/2019 05:05 PM 0.68 0.32 458.86 amsl, NAVD88 View in USGS
Ft Br Boggy Ck at Manor Rd, Austin, TX 08158045 11/21/2019 05:30 PM 1.24 22.00 538.00 amsl, NAVD88 View in USGS
Walnut Ck at Dessau Rd, Austin, TX 08158200 11/21/2019 05:40 PM 13.18 2390.00 553.44 amsl, NGVD29 View in USGS
Little Walnut Ck at Georgian Drive 08158380 11/21/2019 05:30 PM 0.42 0.54 637.23 ft NGVD29 View in USGS
Walnut Creek at Webberville Road 08158600 11/21/2019 05:00 PM 4.10 2.20 425.96 ft NGVD29 View in USGS
Bear Ck nr Brodie Lane nr Manchaca, TX 08158819 12/09/2010 09:05 AM 0.93 0.00 698.00 amsl, NGVD29 View in USGS
Onion Ck at Twin Creeks Rd nr Manchaca, TX 08158827 11/21/2019 05:35 PM 6.60 1.20 595.00 amsl, NGVD29 View in USGS
Slaughter Ck at FM 1826 nr Austin, TX 08158840 11/21/2019 05:30 PM 3.30 0.00 876.14 amsl, NGVD29 View in USGS
Slaughter Ck at FM 2304 nr Austin, TX 08158860 11/21/2019 05:00 PM - 0.20 0.00 654.80 amsl, NGVD29 View in USGS
Williamson Ck at Oak Hill, TX 08158920 11/21/2019 05:40 PM 2.97 0.04 798.68 amsl, NGVD29 View in USGS
Kincheon Br at William Cannon Blvd, Austin, TX 08158927 11/21/2019 05:05 PM - 0.28 0.00 695 amsl, NGVD29 View in USGS
Williamson Ck at Manchaca Rd, Austin, TX 08158930 11/21/2019 05:35 PM 7.27 1160.00 618.39 amsl, NGVD29 View in USGS
Williamson Ck at Jimmy Clay Rd, Austin, TX 08158970 11/21/2019 05:05 PM 5.20 0.00 497.18 amsl, NGVD29 View in USGS
Onion Ck at US Hwy 183, Austin, TX 08159000 11/08/2019 10:50 AM 6.15 35.40 442.85 amsl, NGVD29 View in USGS
 
Watershed Protection Home